sensor_id;sensor_type;location;lat;lon;timestamp;P1;durP1;ratioP1;P2;durP2;ratioP2
64351;SDS011;50680;52.626;-8.668;2023-04-03T00:00:41;7.90;;;4.30;;
64351;SDS011;50680;52.626;-8.668;2023-04-03T00:03:08;11.32;;;3.67;;
64351;SDS011;50680;52.626;-8.668;2023-04-03T00:05:35;10.77;;;3.85;;
64351;SDS011;50680;52.626;-8.668;2023-04-03T00:08:02;8.60;;;3.65;;
64351;SDS011;50680;52.626;-8.668;2023-04-03T00:10:30;11.48;;;3.95;;
64351;SDS011;50680;52.626;-8.668;2023-04-03T00:12:57;13.35;;;3.83;;
64351;SDS011;50680;52.626;-8.668;2023-04-03T00:15:24;8.98;;;3.85;;
64351;SDS011;50680;52.626;-8.668;2023-04-03T00:17:51;9.52;;;3.65;;
64351;SDS011;50680;52.626;-8.668;2023-04-03T00:20:18;9.98;;;3.95;;
64351;SDS011;50680;52.626;-8.668;2023-04-03T00:22:44;8.50;;;3.72;;
64351;SDS011;50680;52.626;-8.668;2023-04-03T00:25:12;8.30;;;3.20;;
64351;SDS011;50680;52.626;-8.668;2023-04-03T00:27:39;7.00;;;3.13;;
64351;SDS011;50680;52.626;-8.668;2023-04-03T00:30:07;9.93;;;3.42;;
64351;SDS011;50680;52.626;-8.668;2023-04-03T00:32:37;8.35;;;3.65;;
64351;SDS011;50680;52.626;-8.668;2023-04-03T00:35:04;9.43;;;3.33;;
64351;SDS011;50680;52.626;-8.668;2023-04-03T00:37:31;12.73;;;3.83;;
64351;SDS011;50680;52.626;-8.668;2023-04-03T00:39:58;11.55;;;3.88;;
64351;SDS011;50680;52.626;-8.668;2023-04-03T00:42:25;8.98;;;3.40;;
64351;SDS011;50680;52.626;-8.668;2023-04-03T00:47:19;11.15;;;3.60;;
64351;SDS011;50680;52.626;-8.668;2023-04-03T00:49:46;6.40;;;2.95;;
64351;SDS011;50680;52.626;-8.668;2023-04-03T00:52:13;7.80;;;3.72;;
64351;SDS011;50680;52.626;-8.668;2023-04-03T00:57:12;7.65;;;3.35;;
64351;SDS011;50680;52.626;-8.668;2023-04-03T00:59:41;6.22;;;2.70;;
64351;SDS011;50680;52.626;-8.668;2023-04-03T01:02:12;5.70;;;2.90;;
64351;SDS011;50680;52.626;-8.668;2023-04-03T01:04:39;11.07;;;2.97;;
64351;SDS011;50680;52.626;-8.668;2023-04-03T01:07:09;9.25;;;3.05;;
64351;SDS011;50680;52.626;-8.668;2023-04-03T01:09:38;11.35;;;2.83;;
64351;SDS011;50680;52.626;-8.668;2023-04-03T01:14:57;5.93;;;3.38;;
64351;SDS011;50680;52.626;-8.668;2023-04-03T01:22:43;6.38;;;2.58;;
64351;SDS011;50680;52.626;-8.668;2023-04-03T01:25:20;6.95;;;2.97;;
64351;SDS011;50680;52.626;-8.668;2023-04-03T01:27:47;9.00;;;2.58;;
64351;SDS011;50680;52.626;-8.668;2023-04-03T01:30:13;9.13;;;2.80;;
64351;SDS011;50680;52.626;-8.668;2023-04-03T01:32:44;9.00;;;3.00;;
64351;SDS011;50680;52.626;-8.668;2023-04-03T01:35:11;10.55;;;2.65;;
64351;SDS011;50680;52.626;-8.668;2023-04-03T01:37:39;7.45;;;3.17;;
64351;SDS011;50680;52.626;-8.668;2023-04-03T01:40:06;8.18;;;2.72;;
64351;SDS011;50680;52.626;-8.668;2023-04-03T01:42:34;8.98;;;2.63;;
64351;SDS011;50680;52.626;-8.668;2023-04-03T01:45:01;8.95;;;2.40;;
64351;SDS011;50680;52.626;-8.668;2023-04-03T01:47:27;6.97;;;2.63;;
64351;SDS011;50680;52.626;-8.668;2023-04-03T01:49:54;7.32;;;2.70;;
64351;SDS011;50680;52.626;-8.668;2023-04-03T01:52:21;6.97;;;2.40;;
64351;SDS011;50680;52.626;-8.668;2023-04-03T01:54:48;7.32;;;2.78;;
64351;SDS011;50680;52.626;-8.668;2023-04-03T01:57:15;4.55;;;2.22;;
64351;SDS011;50680;52.626;-8.668;2023-04-03T01:59:42;4.10;;;2.03;;
64351;SDS011;50680;52.626;-8.668;2023-04-03T02:02:09;7.20;;;2.20;;
64351;SDS011;50680;52.626;-8.668;2023-04-03T02:04:36;6.03;;;2.40;;
64351;SDS011;50680;52.626;-8.668;2023-04-03T02:07:02;3.17;;;2.00;;
64351;SDS011;50680;52.626;-8.668;2023-04-03T02:09:29;5.95;;;2.30;;
64351;SDS011;50680;52.626;-8.668;2023-04-03T02:11:56;6.47;;;2.60;;
64351;SDS011;50680;52.626;-8.668;2023-04-03T02:14:23;6.53;;;2.17;;
64351;SDS011;50680;52.626;-8.668;2023-04-03T02:16:50;2.47;;;1.80;;
64351;SDS011;50680;52.626;-8.668;2023-04-03T02:19:16;4.15;;;1.95;;
64351;SDS011;50680;52.626;-8.668;2023-04-03T02:21:43;5.40;;;1.70;;
64351;SDS011;50680;52.626;-8.668;2023-04-03T02:24:10;7.18;;;2.10;;
64351;SDS011;50680;52.626;-8.668;2023-04-03T02:26:37;6.28;;;1.90;;
64351;SDS011;50680;52.626;-8.668;2023-04-03T02:29:04;9.77;;;1.98;;
64351;SDS011;50680;52.626;-8.668;2023-04-03T02:31:31;8.57;;;2.58;;
64351;SDS011;50680;52.626;-8.668;2023-04-03T02:33:58;6.20;;;1.95;;
64351;SDS011;50680;52.626;-8.668;2023-04-03T02:36:25;5.00;;;2.15;;
64351;SDS011;50680;52.626;-8.668;2023-04-03T02:38:52;2.80;;;2.20;;
64351;SDS011;50680;52.626;-8.668;2023-04-03T02:41:18;4.47;;;2.33;;
64351;SDS011;50680;52.626;-8.668;2023-04-03T02:43:47;9.20;;;2.22;;
64351;SDS011;50680;52.626;-8.668;2023-04-03T02:46:14;5.68;;;2.38;;
64351;SDS011;50680;52.626;-8.668;2023-04-03T02:48:42;4.53;;;1.90;;
64351;SDS011;50680;52.626;-8.668;2023-04-03T02:51:08;4.40;;;2.08;;
64351;SDS011;50680;52.626;-8.668;2023-04-03T02:53:35;6.47;;;2.13;;
64351;SDS011;50680;52.626;-8.668;2023-04-03T02:56:02;5.65;;;2.13;;
64351;SDS011;50680;52.626;-8.668;2023-04-03T02:58:29;5.18;;;2.42;;
64351;SDS011;50680;52.626;-8.668;2023-04-03T03:00:56;5.45;;;2.15;;
64351;SDS011;50680;52.626;-8.668;2023-04-03T03:03:23;9.40;;;2.33;;
64351;SDS011;50680;52.626;-8.668;2023-04-03T03:05:49;5.72;;;2.35;;
64351;SDS011;50680;52.626;-8.668;2023-04-03T03:08:16;5.57;;;1.70;;
64351;SDS011;50680;52.626;-8.668;2023-04-03T03:10:46;9.60;;;2.75;;
64351;SDS011;50680;52.626;-8.668;2023-04-03T03:13:13;9.80;;;1.95;;
64351;SDS011;50680;52.626;-8.668;2023-04-03T03:15:40;6.78;;;2.08;;
64351;SDS011;50680;52.626;-8.668;2023-04-03T03:18:07;4.22;;;1.95;;
64351;SDS011;50680;52.626;-8.668;2023-04-03T03:20:33;5.07;;;2.20;;
64351;SDS011;50680;52.626;-8.668;2023-04-03T03:23:01;7.13;;;2.08;;
64351;SDS011;50680;52.626;-8.668;2023-04-03T03:25:27;4.03;;;2.10;;
64351;SDS011;50680;52.626;-8.668;2023-04-03T03:27:54;4.53;;;2.47;;
64351;SDS011;50680;52.626;-8.668;2023-04-03T03:30:21;5.78;;;2.05;;
64351;SDS011;50680;52.626;-8.668;2023-04-03T03:32:48;7.95;;;2.22;;
64351;SDS011;50680;52.626;-8.668;2023-04-03T03:35:15;6.70;;;2.35;;
64351;SDS011;50680;52.626;-8.668;2023-04-03T03:37:41;3.30;;;1.88;;
64351;SDS011;50680;52.626;-8.668;2023-04-03T03:40:08;3.78;;;1.83;;
64351;SDS011;50680;52.626;-8.668;2023-04-03T03:42:37;3.35;;;1.60;;
64351;SDS011;50680;52.626;-8.668;2023-04-03T03:45:04;5.63;;;1.70;;
64351;SDS011;50680;52.626;-8.668;2023-04-03T03:47:31;4.95;;;1.70;;
64351;SDS011;50680;52.626;-8.668;2023-04-03T03:49:58;4.80;;;1.70;;
64351;SDS011;50680;52.626;-8.668;2023-04-03T03:52:25;4.63;;;1.75;;
64351;SDS011;50680;52.626;-8.668;2023-04-03T03:54:52;4.03;;;1.70;;
64351;SDS011;50680;52.626;-8.668;2023-04-03T03:57:19;3.88;;;1.80;;
64351;SDS011;50680;52.626;-8.668;2023-04-03T03:59:46;4.13;;;1.40;;
64351;SDS011;50680;52.626;-8.668;2023-04-03T04:02:14;5.47;;;1.70;;
64351;SDS011;50680;52.626;-8.668;2023-04-03T04:04:42;3.17;;;1.70;;
64351;SDS011;50680;52.626;-8.668;2023-04-03T04:07:09;2.47;;;1.52;;
64351;SDS011;50680;52.626;-8.668;2023-04-03T04:09:36;6.90;;;1.38;;
64351;SDS011;50680;52.626;-8.668;2023-04-03T04:12:03;2.15;;;1.50;;
64351;SDS011;50680;52.626;-8.668;2023-04-03T04:14:29;7.97;;;1.55;;
64351;SDS011;50680;52.626;-8.668;2023-04-03T04:16:56;2.70;;;1.23;;
64351;SDS011;50680;52.626;-8.668;2023-04-03T04:19:23;7.35;;;1.33;;
64351;SDS011;50680;52.626;-8.668;2023-04-03T04:21:50;3.42;;;1.30;;
64351;SDS011;50680;52.626;-8.668;2023-04-03T04:24:17;3.00;;;1.05;;
64351;SDS011;50680;52.626;-8.668;2023-04-03T04:26:44;4.47;;;1.30;;
64351;SDS011;50680;52.626;-8.668;2023-04-03T04:29:11;2.60;;;1.05;;
64351;SDS011;50680;52.626;-8.668;2023-04-03T04:31:37;2.50;;;1.10;;
64351;SDS011;50680;52.626;-8.668;2023-04-03T04:34:04;4.03;;;1.10;;
64351;SDS011;50680;52.626;-8.668;2023-04-03T04:36:31;1.63;;;0.93;;
64351;SDS011;50680;52.626;-8.668;2023-04-03T04:38:58;4.32;;;1.13;;
64351;SDS011;50680;52.626;-8.668;2023-04-03T04:41:25;2.35;;;1.10;;
64351;SDS011;50680;52.626;-8.668;2023-04-03T04:43:52;2.92;;;0.95;;
64351;SDS011;50680;52.626;-8.668;2023-04-03T04:46:19;3.47;;;0.98;;
64351;SDS011;50680;52.626;-8.668;2023-04-03T04:48:46;1.05;;;0.88;;
64351;SDS011;50680;52.626;-8.668;2023-04-03T04:51:12;4.18;;;1.30;;
64351;SDS011;50680;52.626;-8.668;2023-04-03T04:53:39;3.63;;;1.20;;
64351;SDS011;50680;52.626;-8.668;2023-04-03T04:56:06;3.83;;;1.10;;
64351;SDS011;50680;52.626;-8.668;2023-04-03T04:58:33;5.70;;;1.10;;
64351;SDS011;50680;52.626;-8.668;2023-04-03T05:01:04;6.47;;;1.48;;
64351;SDS011;50680;52.626;-8.668;2023-04-03T05:03:33;2.10;;;1.40;;
64351;SDS011;50680;52.626;-8.668;2023-04-03T05:06:00;3.65;;;1.50;;
64351;SDS011;50680;52.626;-8.668;2023-04-03T05:08:27;2.90;;;1.50;;
64351;SDS011;50680;52.626;-8.668;2023-04-03T05:10:54;3.70;;;1.33;;
64351;SDS011;50680;52.626;-8.668;2023-04-03T05:13:21;4.07;;;1.88;;
64351;SDS011;50680;52.626;-8.668;2023-04-03T05:15:48;3.10;;;1.63;;
64351;SDS011;50680;52.626;-8.668;2023-04-03T05:18:15;3.00;;;1.67;;
64351;SDS011;50680;52.626;-8.668;2023-04-03T05:20:42;4.43;;;1.60;;
64351;SDS011;50680;52.626;-8.668;2023-04-03T05:23:10;2.40;;;1.77;;
64351;SDS011;50680;52.626;-8.668;2023-04-03T05:25:38;5.43;;;2.20;;
64351;SDS011;50680;52.626;-8.668;2023-04-03T05:28:05;5.65;;;1.70;;
64351;SDS011;50680;52.626;-8.668;2023-04-03T05:30:32;4.85;;;1.65;;
64351;SDS011;50680;52.626;-8.668;2023-04-03T05:32:59;2.00;;;1.48;;
64351;SDS011;50680;52.626;-8.668;2023-04-03T05:35:26;7.25;;;1.92;;
64351;SDS011;50680;52.626;-8.668;2023-04-03T05:37:53;7.35;;;1.85;;
64351;SDS011;50680;52.626;-8.668;2023-04-03T05:40:21;3.90;;;1.70;;
64351;SDS011;50680;52.626;-8.668;2023-04-03T05:42:47;3.58;;;2.78;;
64351;SDS011;50680;52.626;-8.668;2023-04-03T05:45:14;3.67;;;1.80;;
64351;SDS011;50680;52.626;-8.668;2023-04-03T05:47:41;5.40;;;1.50;;
64351;SDS011;50680;52.626;-8.668;2023-04-03T05:50:08;3.60;;;1.38;;
64351;SDS011;50680;52.626;-8.668;2023-04-03T05:52:36;6.03;;;1.63;;
64351;SDS011;50680;52.626;-8.668;2023-04-03T05:55:06;3.42;;;1.60;;
64351;SDS011;50680;52.626;-8.668;2023-04-03T05:57:33;3.40;;;1.67;;
64351;SDS011;50680;52.626;-8.668;2023-04-03T06:00:00;5.32;;;1.70;;
64351;SDS011;50680;52.626;-8.668;2023-04-03T06:02:27;7.55;;;1.70;;
64351;SDS011;50680;52.626;-8.668;2023-04-03T06:04:54;5.88;;;2.08;;
64351;SDS011;50680;52.626;-8.668;2023-04-03T06:07:22;4.35;;;1.40;;
64351;SDS011;50680;52.626;-8.668;2023-04-03T06:09:53;4.13;;;1.40;;
64351;SDS011;50680;52.626;-8.668;2023-04-03T06:12:22;5.68;;;1.23;;
64351;SDS011;50680;52.626;-8.668;2023-04-03T06:14:49;2.30;;;1.33;;
64351;SDS011;50680;52.626;-8.668;2023-04-03T06:17:16;5.28;;;1.52;;
64351;SDS011;50680;52.626;-8.668;2023-04-03T06:19:44;4.05;;;1.95;;
64351;SDS011;50680;52.626;-8.668;2023-04-03T06:22:12;4.03;;;1.30;;
64351;SDS011;50680;52.626;-8.668;2023-04-03T06:24:39;7.35;;;1.70;;
64351;SDS011;50680;52.626;-8.668;2023-04-03T06:27:06;2.65;;;1.23;;
64351;SDS011;50680;52.626;-8.668;2023-04-03T06:29:33;2.83;;;1.40;;
64351;SDS011;50680;52.626;-8.668;2023-04-03T06:32:00;7.10;;;2.65;;
64351;SDS011;50680;52.626;-8.668;2023-04-03T06:34:27;5.90;;;1.35;;
64351;SDS011;50680;52.626;-8.668;2023-04-03T06:36:53;4.15;;;1.60;;
64351;SDS011;50680;52.626;-8.668;2023-04-03T06:39:21;6.35;;;1.40;;
64351;SDS011;50680;52.626;-8.668;2023-04-03T06:41:49;5.03;;;1.30;;
64351;SDS011;50680;52.626;-8.668;2023-04-03T06:44:17;6.55;;;1.40;;
64351;SDS011;50680;52.626;-8.668;2023-04-03T06:46:44;2.80;;;1.35;;
64351;SDS011;50680;52.626;-8.668;2023-04-03T06:49:12;4.32;;;1.42;;
64351;SDS011;50680;52.626;-8.668;2023-04-03T06:51:40;5.82;;;1.60;;
64351;SDS011;50680;52.626;-8.668;2023-04-03T06:54:07;7.07;;;1.52;;
64351;SDS011;50680;52.626;-8.668;2023-04-03T06:56:34;5.53;;;1.83;;
64351;SDS011;50680;52.626;-8.668;2023-04-03T06:59:01;1.98;;;1.42;;
64351;SDS011;50680;52.626;-8.668;2023-04-03T07:01:29;3.03;;;2.05;;
64351;SDS011;50680;52.626;-8.668;2023-04-03T07:03:57;3.50;;;1.70;;
64351;SDS011;50680;52.626;-8.668;2023-04-03T07:06:24;4.75;;;1.65;;
64351;SDS011;50680;52.626;-8.668;2023-04-03T07:08:53;2.50;;;1.00;;
64351;SDS011;50680;52.626;-8.668;2023-04-03T07:11:21;11.68;;;1.83;;
64351;SDS011;50680;52.626;-8.668;2023-04-03T07:13:48;7.22;;;1.55;;
64351;SDS011;50680;52.626;-8.668;2023-04-03T07:16:16;4.97;;;1.27;;
64351;SDS011;50680;52.626;-8.668;2023-04-03T07:18:43;5.38;;;1.52;;
64351;SDS011;50680;52.626;-8.668;2023-04-03T07:21:11;3.67;;;1.27;;
64351;SDS011;50680;52.626;-8.668;2023-04-03T07:23:38;1.95;;;1.38;;
64351;SDS011;50680;52.626;-8.668;2023-04-03T07:26:05;2.50;;;1.20;;
64351;SDS011;50680;52.626;-8.668;2023-04-03T07:28:32;7.10;;;1.30;;
64351;SDS011;50680;52.626;-8.668;2023-04-03T07:33:28;2.55;;;1.40;;
64351;SDS011;50680;52.626;-8.668;2023-04-03T07:35:55;7.75;;;1.45;;
64351;SDS011;50680;52.626;-8.668;2023-04-03T07:38:23;3.30;;;1.30;;
64351;SDS011;50680;52.626;-8.668;2023-04-03T07:40:50;3.88;;;1.42;;
64351;SDS011;50680;52.626;-8.668;2023-04-03T07:43:19;1.98;;;1.10;;
64351;SDS011;50680;52.626;-8.668;2023-04-03T07:45:47;3.67;;;1.20;;
64351;SDS011;50680;52.626;-8.668;2023-04-03T07:48:23;3.90;;;1.38;;
64351;SDS011;50680;52.626;-8.668;2023-04-03T07:50:51;5.35;;;1.42;;
64351;SDS011;50680;52.626;-8.668;2023-04-03T07:53:18;2.72;;;1.48;;
64351;SDS011;50680;52.626;-8.668;2023-04-03T07:55:46;3.28;;;1.38;;
64351;SDS011;50680;52.626;-8.668;2023-04-03T07:58:16;3.75;;;1.38;;
64351;SDS011;50680;52.626;-8.668;2023-04-03T08:00:44;3.40;;;1.45;;
64351;SDS011;50680;52.626;-8.668;2023-04-03T08:03:12;5.63;;;1.30;;
64351;SDS011;50680;52.626;-8.668;2023-04-03T08:05:40;8.65;;;1.60;;
64351;SDS011;50680;52.626;-8.668;2023-04-03T08:08:09;4.95;;;1.40;;
64351;SDS011;50680;52.626;-8.668;2023-04-03T08:10:40;9.25;;;1.48;;
64351;SDS011;50680;52.626;-8.668;2023-04-03T08:13:08;7.00;;;1.65;;
64351;SDS011;50680;52.626;-8.668;2023-04-03T08:15:35;2.92;;;1.25;;
64351;SDS011;50680;52.626;-8.668;2023-04-03T08:18:03;7.05;;;1.50;;
64351;SDS011;50680;52.626;-8.668;2023-04-03T08:20:30;3.65;;;1.40;;
64351;SDS011;50680;52.626;-8.668;2023-04-03T08:22:57;3.67;;;1.52;;
64351;SDS011;50680;52.626;-8.668;2023-04-03T08:25:24;2.70;;;1.35;;
64351;SDS011;50680;52.626;-8.668;2023-04-03T08:27:51;2.95;;;1.25;;
64351;SDS011;50680;52.626;-8.668;2023-04-03T08:30:18;6.35;;;1.58;;
64351;SDS011;50680;52.626;-8.668;2023-04-03T08:32:45;4.93;;;1.50;;
64351;SDS011;50680;52.626;-8.668;2023-04-03T08:35:12;8.65;;;1.42;;
64351;SDS011;50680;52.626;-8.668;2023-04-03T08:37:39;6.88;;;1.45;;
64351;SDS011;50680;52.626;-8.668;2023-04-03T08:40:07;4.38;;;1.35;;
64351;SDS011;50680;52.626;-8.668;2023-04-03T08:48:31;4.50;;;1.58;;
64351;SDS011;50680;52.626;-8.668;2023-04-03T08:51:09;3.30;;;1.30;;
64351;SDS011;50680;52.626;-8.668;2023-04-03T08:53:43;4.10;;;1.65;;
64351;SDS011;50680;52.626;-8.668;2023-04-03T08:56:19;2.45;;;1.50;;
64351;SDS011;50680;52.626;-8.668;2023-04-03T08:58:57;6.03;;;1.40;;
64351;SDS011;50680;52.626;-8.668;2023-04-03T09:01:27;4.18;;;1.33;;
64351;SDS011;50680;52.626;-8.668;2023-04-03T09:03:54;6.80;;;1.50;;
64351;SDS011;50680;52.626;-8.668;2023-04-03T09:06:23;5.80;;;1.42;;
64351;SDS011;50680;52.626;-8.668;2023-04-03T09:14:31;5.57;;;1.50;;
64351;SDS011;50680;52.626;-8.668;2023-04-03T09:17:08;3.42;;;1.40;;
64351;SDS011;50680;52.626;-8.668;2023-04-03T09:19:45;5.45;;;1.40;;
64351;SDS011;50680;52.626;-8.668;2023-04-03T09:22:22;6.30;;;1.70;;
64351;SDS011;50680;52.626;-8.668;2023-04-03T09:25:07;8.25;;;1.67;;
64351;SDS011;50680;52.626;-8.668;2023-04-03T09:27:43;5.68;;;1.52;;
64351;SDS011;50680;52.626;-8.668;2023-04-03T09:30:21;10.00;;;1.58;;
64351;SDS011;50680;52.626;-8.668;2023-04-03T09:32:51;3.08;;;1.67;;
64351;SDS011;50680;52.626;-8.668;2023-04-03T09:35:23;5.88;;;1.52;;
64351;SDS011;50680;52.626;-8.668;2023-04-03T09:40:41;3.33;;;1.42;;
64351;SDS011;50680;52.626;-8.668;2023-04-03T09:45:48;3.70;;;1.45;;
64351;SDS011;50680;52.626;-8.668;2023-04-03T09:48:17;2.80;;;1.42;;
64351;SDS011;50680;52.626;-8.668;2023-04-03T09:50:59;7.75;;;1.65;;
64351;SDS011;50680;52.626;-8.668;2023-04-03T09:55:57;7.75;;;1.75;;
64351;SDS011;50680;52.626;-8.668;2023-04-03T09:58:26;5.75;;;1.60;;
64351;SDS011;50680;52.626;-8.668;2023-04-03T10:01:23;2.95;;;1.95;;
64351;SDS011;50680;52.626;-8.668;2023-04-03T10:04:03;5.47;;;1.50;;
64351;SDS011;50680;52.626;-8.668;2023-04-03T10:06:34;3.90;;;1.73;;
64351;SDS011;50680;52.626;-8.668;2023-04-03T10:12:03;8.52;;;1.58;;
64351;SDS011;50680;52.626;-8.668;2023-04-03T10:14:40;4.25;;;1.92;;
64351;SDS011;50680;52.626;-8.668;2023-04-03T10:19:55;5.85;;;1.50;;
64351;SDS011;50680;52.626;-8.668;2023-04-03T10:27:55;3.90;;;1.25;;
64351;SDS011;50680;52.626;-8.668;2023-04-03T10:47:07;9.60;;;1.80;;
64351;SDS011;50680;52.626;-8.668;2023-04-03T10:52:30;3.72;;;1.60;;
64351;SDS011;50680;52.626;-8.668;2023-04-03T10:58:01;6.90;;;1.70;;
64351;SDS011;50680;52.626;-8.668;2023-04-03T11:00:39;5.00;;;1.60;;
64351;SDS011;50680;52.626;-8.668;2023-04-03T11:03:30;7.97;;;1.73;;
64351;SDS011;50680;52.626;-8.668;2023-04-03T11:06:01;12.07;;;2.75;;
64351;SDS011;50680;52.626;-8.668;2023-04-03T11:08:43;7.90;;;1.60;;
64351;SDS011;50680;52.626;-8.668;2023-04-03T11:11:15;5.63;;;1.55;;
64351;SDS011;50680;52.626;-8.668;2023-04-03T11:16:24;4.45;;;1.40;;
64351;SDS011;50680;52.626;-8.668;2023-04-03T11:19:05;3.40;;;1.60;;
64351;SDS011;50680;52.626;-8.668;2023-04-03T11:21:42;2.22;;;1.38;;
64351;SDS011;50680;52.626;-8.668;2023-04-03T11:24:25;3.50;;;1.60;;
64351;SDS011;50680;52.626;-8.668;2023-04-03T11:26:54;3.55;;;1.58;;
64351;SDS011;50680;52.626;-8.668;2023-04-03T11:29:25;3.75;;;1.20;;
64351;SDS011;50680;52.626;-8.668;2023-04-03T11:35:08;5.10;;;1.40;;
64351;SDS011;50680;52.626;-8.668;2023-04-03T11:37:49;3.75;;;1.42;;
64351;SDS011;50680;52.626;-8.668;2023-04-03T11:40:20;4.05;;;1.30;;
64351;SDS011;50680;52.626;-8.668;2023-04-03T11:43:20;4.35;;;1.67;;
64351;SDS011;50680;52.626;-8.668;2023-04-03T11:50:56;5.90;;;1.85;;
64351;SDS011;50680;52.626;-8.668;2023-04-03T11:56:02;2.38;;;1.60;;
64351;SDS011;50680;52.626;-8.668;2023-04-03T11:58:32;6.38;;;2.00;;
64351;SDS011;50680;52.626;-8.668;2023-04-03T12:01:02;5.43;;;2.00;;
64351;SDS011;50680;52.626;-8.668;2023-04-03T12:22:05;2.90;;;1.55;;
64351;SDS011;50680;52.626;-8.668;2023-04-03T12:24:29;1.75;;;1.50;;
64351;SDS011;50680;52.626;-8.668;2023-04-03T12:29:47;6.28;;;1.70;;
64351;SDS011;50680;52.626;-8.668;2023-04-03T12:32:24;3.35;;;1.58;;
64351;SDS011;50680;52.626;-8.668;2023-04-03T12:46:38;8.20;;;1.90;;
64351;SDS011;50680;52.626;-8.668;2023-04-03T12:49:23;4.50;;;2.10;;
64351;SDS011;50680;52.626;-8.668;2023-04-03T12:51:57;3.92;;;1.90;;
64351;SDS011;50680;52.626;-8.668;2023-04-03T12:54:37;6.53;;;2.22;;
64351;SDS011;50680;52.626;-8.668;2023-04-03T12:57:12;9.57;;;2.10;;
64351;SDS011;50680;52.626;-8.668;2023-04-03T12:59:42;8.07;;;2.55;;
64351;SDS011;50680;52.626;-8.668;2023-04-03T13:02:31;7.88;;;2.00;;
64351;SDS011;50680;52.626;-8.668;2023-04-03T13:05:06;10.85;;;2.17;;
64351;SDS011;50680;52.626;-8.668;2023-04-03T13:07:35;8.98;;;1.67;;
64351;SDS011;50680;52.626;-8.668;2023-04-03T13:12:50;4.15;;;1.90;;
64351;SDS011;50680;52.626;-8.668;2023-04-03T13:15:29;5.93;;;1.83;;
64351;SDS011;50680;52.626;-8.668;2023-04-03T13:18:05;6.28;;;2.33;;
64351;SDS011;50680;52.626;-8.668;2023-04-03T13:20:50;10.38;;;2.20;;
64351;SDS011;50680;52.626;-8.668;2023-04-03T13:23:17;5.20;;;2.35;;
64351;SDS011;50680;52.626;-8.668;2023-04-03T13:25:47;6.22;;;2.10;;
64351;SDS011;50680;52.626;-8.668;2023-04-03T13:28:17;6.03;;;2.00;;
64351;SDS011;50680;52.626;-8.668;2023-04-03T13:33:54;2.80;;;1.70;;
64351;SDS011;50680;52.626;-8.668;2023-04-03T13:36:30;7.50;;;1.90;;
64351;SDS011;50680;52.626;-8.668;2023-04-03T13:41:45;7.07;;;2.50;;
64351;SDS011;50680;52.626;-8.668;2023-04-03T13:44:23;9.25;;;2.20;;
64351;SDS011;50680;52.626;-8.668;2023-04-03T13:46:55;5.55;;;1.90;;
64351;SDS011;50680;52.626;-8.668;2023-04-03T13:54:57;5.93;;;2.03;;
64351;SDS011;50680;52.626;-8.668;2023-04-03T13:57:28;3.60;;;1.83;;
64351;SDS011;50680;52.626;-8.668;2023-04-03T13:59:55;5.53;;;2.65;;
64351;SDS011;50680;52.626;-8.668;2023-04-03T14:02:28;5.70;;;2.30;;
64351;SDS011;50680;52.626;-8.668;2023-04-03T14:04:59;6.50;;;2.42;;
64351;SDS011;50680;52.626;-8.668;2023-04-03T14:07:28;11.68;;;2.97;;
64351;SDS011;50680;52.626;-8.668;2023-04-03T14:09:57;5.93;;;2.90;;
64351;SDS011;50680;52.626;-8.668;2023-04-03T14:12:35;5.50;;;2.78;;
64351;SDS011;50680;52.626;-8.668;2023-04-03T14:15:11;5.53;;;2.47;;
64351;SDS011;50680;52.626;-8.668;2023-04-03T14:17:43;6.03;;;3.08;;
64351;SDS011;50680;52.626;-8.668;2023-04-03T14:20:13;8.75;;;2.83;;
64351;SDS011;50680;52.626;-8.668;2023-04-03T14:22:44;5.88;;;3.15;;
64351;SDS011;50680;52.626;-8.668;2023-04-03T14:25:11;4.53;;;3.03;;
64351;SDS011;50680;52.626;-8.668;2023-04-03T14:27:39;7.22;;;2.80;;
64351;SDS011;50680;52.626;-8.668;2023-04-03T14:30:11;7.05;;;3.13;;
64351;SDS011;50680;52.626;-8.668;2023-04-03T14:32:41;9.65;;;3.30;;
64351;SDS011;50680;52.626;-8.668;2023-04-03T14:35:08;6.53;;;3.10;;
64351;SDS011;50680;52.626;-8.668;2023-04-03T14:37:35;5.60;;;3.15;;
64351;SDS011;50680;52.626;-8.668;2023-04-03T14:40:06;7.53;;;3.50;;
64351;SDS011;50680;52.626;-8.668;2023-04-03T14:42:35;8.15;;;2.40;;
64351;SDS011;50680;52.626;-8.668;2023-04-03T14:45:05;10.88;;;2.60;;
64351;SDS011;50680;52.626;-8.668;2023-04-03T14:47:34;5.78;;;2.47;;
64351;SDS011;50680;52.626;-8.668;2023-04-03T14:50:07;8.88;;;2.70;;
64351;SDS011;50680;52.626;-8.668;2023-04-03T14:52:35;8.32;;;2.85;;
64351;SDS011;50680;52.626;-8.668;2023-04-03T14:55:03;9.73;;;2.75;;
64351;SDS011;50680;52.626;-8.668;2023-04-03T14:57:32;5.55;;;2.97;;
64351;SDS011;50680;52.626;-8.668;2023-04-03T15:00:00;4.90;;;2.95;;
64351;SDS011;50680;52.626;-8.668;2023-04-03T15:02:30;7.32;;;3.10;;
64351;SDS011;50680;52.626;-8.668;2023-04-03T15:04:59;7.57;;;3.30;;
64351;SDS011;50680;52.626;-8.668;2023-04-03T15:07:31;7.38;;;3.22;;
64351;SDS011;50680;52.626;-8.668;2023-04-03T15:10:14;10.38;;;3.10;;
64351;SDS011;50680;52.626;-8.668;2023-04-03T15:12:41;11.70;;;3.10;;
64351;SDS011;50680;52.626;-8.668;2023-04-03T15:15:09;10.00;;;3.17;;
64351;SDS011;50680;52.626;-8.668;2023-04-03T15:17:36;6.50;;;3.15;;
64351;SDS011;50680;52.626;-8.668;2023-04-03T15:20:05;10.30;;;3.08;;
64351;SDS011;50680;52.626;-8.668;2023-04-03T15:22:47;9.48;;;2.45;;
64351;SDS011;50680;52.626;-8.668;2023-04-03T15:25:15;8.90;;;2.90;;
64351;SDS011;50680;52.626;-8.668;2023-04-03T15:27:42;11.93;;;3.25;;
64351;SDS011;50680;52.626;-8.668;2023-04-03T15:30:11;10.27;;;3.45;;
64351;SDS011;50680;52.626;-8.668;2023-04-03T15:32:40;9.73;;;3.42;;
64351;SDS011;50680;52.626;-8.668;2023-04-03T15:35:07;14.68;;;3.40;;
64351;SDS011;50680;52.626;-8.668;2023-04-03T15:37:34;12.60;;;3.33;;
64351;SDS011;50680;52.626;-8.668;2023-04-03T15:40:02;10.77;;;3.60;;
64351;SDS011;50680;52.626;-8.668;2023-04-03T15:42:30;10.93;;;3.47;;
64351;SDS011;50680;52.626;-8.668;2023-04-03T15:44:56;12.88;;;3.92;;
64351;SDS011;50680;52.626;-8.668;2023-04-03T15:47:24;10.40;;;3.38;;
64351;SDS011;50680;52.626;-8.668;2023-04-03T15:49:51;6.03;;;3.50;;
64351;SDS011;50680;52.626;-8.668;2023-04-03T15:52:20;11.07;;;3.30;;
64351;SDS011;50680;52.626;-8.668;2023-04-03T15:54:46;10.02;;;3.47;;
64351;SDS011;50680;52.626;-8.668;2023-04-03T15:57:13;15.10;;;3.97;;
64351;SDS011;50680;52.626;-8.668;2023-04-03T15:59:40;13.48;;;4.28;;
64351;SDS011;50680;52.626;-8.668;2023-04-03T16:02:07;17.30;;;3.65;;
64351;SDS011;50680;52.626;-8.668;2023-04-03T16:04:36;12.93;;;3.70;;
64351;SDS011;50680;52.626;-8.668;2023-04-03T16:07:03;14.15;;;3.88;;
64351;SDS011;50680;52.626;-8.668;2023-04-03T16:09:31;11.20;;;3.58;;
64351;SDS011;50680;52.626;-8.668;2023-04-03T16:11:59;15.05;;;3.53;;
64351;SDS011;50680;52.626;-8.668;2023-04-03T16:14:26;11.38;;;3.55;;
64351;SDS011;50680;52.626;-8.668;2023-04-03T16:16:54;10.75;;;3.97;;
64351;SDS011;50680;52.626;-8.668;2023-04-03T16:19:21;13.80;;;3.85;;
64351;SDS011;50680;52.626;-8.668;2023-04-03T16:21:52;13.85;;;4.15;;
64351;SDS011;50680;52.626;-8.668;2023-04-03T16:24:20;10.45;;;3.35;;
64351;SDS011;50680;52.626;-8.668;2023-04-03T16:26:47;18.90;;;3.70;;
64351;SDS011;50680;52.626;-8.668;2023-04-03T16:29:14;6.43;;;3.42;;
64351;SDS011;50680;52.626;-8.668;2023-04-03T16:31:41;8.52;;;3.72;;
64351;SDS011;50680;52.626;-8.668;2023-04-03T16:34:08;13.52;;;3.92;;
64351;SDS011;50680;52.626;-8.668;2023-04-03T16:36:35;8.77;;;3.95;;
64351;SDS011;50680;52.626;-8.668;2023-04-03T16:39:03;11.38;;;4.18;;
64351;SDS011;50680;52.626;-8.668;2023-04-03T16:41:30;12.38;;;3.58;;
64351;SDS011;50680;52.626;-8.668;2023-04-03T16:43:58;10.88;;;4.57;;
64351;SDS011;50680;52.626;-8.668;2023-04-03T16:46:25;9.55;;;3.50;;
64351;SDS011;50680;52.626;-8.668;2023-04-03T16:48:52;10.63;;;3.33;;
64351;SDS011;50680;52.626;-8.668;2023-04-03T16:51:18;11.55;;;3.55;;
64351;SDS011;50680;52.626;-8.668;2023-04-03T16:53:45;10.00;;;3.35;;